Time;durP1;ratioP1;P1;durP2;ratioP2;P2;SDS_P1;SDS_P2;PMS_P1;PMS_P2;Temp;Humidity;BMP_temperature;BMP_pressure;BME280_temperature;BME280_humidity;BME280_pressure;Samples;Min_cycle;Max_cycle;Signal;HPM_P1;HPM_P2
2021/03/31 00:00:26;;;;;;;15.25;8.18;;;14.90;44.60;;;;;;2067764;28;20046;-82
2021/03/31 00:01:27;;;;;;;14.40;8.63;;;14.90;44.60;;;;;;2074238;28;20125;-82
2021/03/31 00:02:28;;;;;;;15.40;8.15;;;14.90;44.60;;;;;;2072125;28;20026;-83
2021/03/31 00:03:28;;;;;;;17.33;8.55;;;14.90;44.60;;;;;;2072173;28;20034;-82
2021/03/31 00:04:29;;;;;;;16.00;8.23;;;14.90;44.60;;;;;;2078228;28;20491;-82
2021/03/31 00:05:30;;;;;;;15.23;8.23;;;14.90;44.60;;;;;;2069610;28;20034;-82
2021/03/31 00:06:30;;;;;;;14.43;7.63;;;14.90;44.60;;;;;;2087563;28;20028;-82
2021/03/31 00:07:31;;;;;;;15.15;8.52;;;14.90;44.50;;;;;;2089199;28;20443;-83
2021/03/31 00:08:32;;;;;;;15.40;8.20;;;14.90;44.50;;;;;;2063731;28;20058;-82
2021/03/31 00:09:33;;;;;;;13.95;8.18;;;14.90;44.50;;;;;;2048564;28;20121;-82
2021/03/31 00:10:46;;;;;;;16.17;8.45;;;14.90;44.50;;;;;;2063725;28;20117;-82
2021/03/31 00:11:47;;;;;;;15.43;8.40;;;14.90;44.60;;;;;;2074284;28;20037;-82
2021/03/31 00:12:48;;;;;;;14.48;8.07;;;14.80;44.70;;;;;;2075876;28;20099;-82
2021/03/31 00:13:49;;;;;;;13.57;6.93;;;14.80;44.70;;;;;;2070409;28;20479;-83
2021/03/31 00:14:49;;;;;;;13.80;7.70;;;14.70;44.80;;;;;;2074500;28;20030;-82
2021/03/31 00:15:50;;;;;;;13.98;8.13;;;14.70;44.80;;;;;;2088091;28;20092;-82
2021/03/31 00:16:51;;;;;;;14.32;7.90;;;14.70;44.80;;;;;;2080212;28;20034;-82
2021/03/31 00:17:52;;;;;;;14.07;7.38;;;14.70;44.90;;;;;;2080789;28;20436;-82
2021/03/31 00:18:52;;;;;;;13.73;8.02;;;14.70;44.90;;;;;;2057451;28;20055;-82
2021/03/31 00:19:53;;;;;;;14.57;8.18;;;14.70;44.90;;;;;;2064505;28;20045;-82
2021/03/31 00:20:54;;;;;;;16.02;8.85;;;14.70;44.80;;;;;;2068456;28;20089;-82
2021/03/31 00:21:54;;;;;;;14.82;8.18;;;14.60;44.70;;;;;;2064434;28;20129;-82
2021/03/31 00:22:55;;;;;;;16.45;8.68;;;14.60;44.70;;;;;;2079209;28;20448;-82
2021/03/31 00:23:56;;;;;;;14.77;8.30;;;14.70;44.80;;;;;;2064178;28;20039;-82
2021/03/31 00:24:56;;;;;;;16.38;8.65;;;14.70;44.70;;;;;;2067080;28;20488;-82
2021/03/31 00:25:57;;;;;;;16.58;8.27;;;14.60;44.60;;;;;;2080570;28;20381;-82
2021/03/31 00:26:58;;;;;;;14.05;7.90;;;14.60;44.60;;;;;;2074403;28;20029;-82
2021/03/31 00:27:59;;;;;;;15.77;8.35;;;14.60;44.70;;;;;;2088651;28;20037;-82
2021/03/31 00:29:00;;;;;;;14.48;8.07;;;14.60;44.80;;;;;;2081449;28;20034;-82
2021/03/31 00:30:01;;;;;;;13.07;7.60;;;14.60;45.50;;;;;;2079734;28;20025;-82
2021/03/31 00:31:02;;;;;;;15.80;8.25;;;14.60;44.90;;;;;;2077379;28;20140;-81
2021/03/31 00:32:02;;;;;;;14.32;7.80;;;14.60;45.00;;;;;;2070866;28;20022;-81
2021/03/31 00:33:04;;;;;;;13.48;7.50;;;14.50;45.00;;;;;;2070402;28;20057;-82
2021/03/31 00:34:05;;;;;;;14.75;7.53;;;14.50;45.70;;;;;;2086495;28;20426;-82
2021/03/31 00:35:07;;;;;;;13.13;7.50;;;14.50;45.10;;;;;;2080814;28;20029;-82
2021/03/31 00:36:08;;;;;;;13.40;7.82;;;14.50;45.30;;;;;;2081166;28;20440;-82
2021/03/31 00:37:09;;;;;;;13.77;7.47;;;14.40;45.20;;;;;;2081745;28;20033;-82
2021/03/31 00:38:10;;;;;;;13.82;7.70;;;14.40;45.30;;;;;;2074164;28;20037;-82
2021/03/31 00:39:11;;;;;;;15.13;7.85;;;14.40;45.30;;;;;;2078394;28;20026;-82
2021/03/31 00:40:15;;;;;;;12.93;7.47;;;14.40;45.40;;;;;;2074791;28;20064;-82
2021/03/31 00:41:16;;;;;;;15.65;7.85;;;14.40;45.40;;;;;;2082453;28;20108;-82
2021/03/31 00:42:17;;;;;;;14.80;8.02;;;14.40;45.40;;;;;;2090014;28;20095;-82
2021/03/31 00:43:19;;;;;;;14.82;8.52;;;14.40;45.30;;;;;;2086123;28;20031;-83
2021/03/31 00:44:20;;;;;;;15.95;8.88;;;14.40;45.20;;;;;;2090629;28;20025;-82
2021/03/31 00:45:21;;;;;;;16.02;8.95;;;14.40;45.20;;;;;;2080379;28;20037;-82
2021/03/31 00:46:21;;;;;;;14.25;7.75;;;14.40;45.10;;;;;;2086915;28;20083;-82
2021/03/31 00:47:22;;;;;;;17.98;8.40;;;14.40;45.10;;;;;;2096397;28;20024;-82
2021/03/31 00:48:23;;;;;;;16.52;8.73;;;14.40;45.10;;;;;;2090079;28;20021;-82
2021/03/31 00:49:24;;;;;;;13.95;7.82;;;14.40;45.00;;;;;;2082384;28;20028;-82
2021/03/31 00:50:25;;;;;;;13.65;7.78;;;14.40;45.00;;;;;;2073723;28;20033;-82
2021/03/31 00:51:25;;;;;;;17.10;8.40;;;14.40;45.00;;;;;;2058494;28;20030;-82
2021/03/31 00:52:26;;;;;;;14.55;8.18;;;14.40;45.00;;;;;;2065870;28;20051;-82
2021/03/31 00:53:33;;;;;;;17.42;8.35;;;14.40;45.00;;;;;;2082424;28;20029;-82
2021/03/31 00:54:33;;;;;;;13.15;7.50;;;14.40;45.00;;;;;;2082217;28;20021;-82
2021/03/31 00:55:34;;;;;;;14.07;7.80;;;14.40;45.00;;;;;;2073311;28;20061;-82
2021/03/31 00:56:35;;;;;;;16.13;8.27;;;14.40;45.00;;;;;;2080371;28;20061;-82
2021/03/31 00:57:37;;;;;;;13.80;7.85;;;14.30;45.00;;;;;;2068969;28;20025;-82
2021/03/31 00:58:38;;;;;;;15.43;7.88;;;14.30;45.10;;;;;;2074348;28;20468;-82
2021/03/31 00:59:39;;;;;;;15.43;8.43;;;14.30;45.10;;;;;;2088006;28;20025;-82
2021/03/31 01:00:40;;;;;;;14.82;8.10;;;14.30;45.20;;;;;;2080755;28;20542;-82
2021/03/31 01:01:41;;;;;;;15.93;8.23;;;14.30;45.20;;;;;;2082131;28;20029;-82
2021/03/31 01:02:42;;;;;;;13.20;7.38;;;14.30;45.30;;;;;;2074009;28;20116;-82
2021/03/31 01:03:42;;;;;;;13.75;7.85;;;14.30;45.30;;;;;;2064660;28;20027;-82
2021/03/31 01:04:43;;;;;;;13.63;7.63;;;14.20;45.40;;;;;;2078726;28;20403;-82
2021/03/31 01:05:44;;;;;;;14.52;7.80;;;14.20;45.40;;;;;;2073577;28;20096;-82
2021/03/31 01:06:44;;;;;;;15.13;7.93;;;14.20;45.60;;;;;;2074852;28;20460;-81
2021/03/31 01:07:46;;;;;;;13.85;7.78;;;14.20;45.60;;;;;;2075586;28;20033;-82
2021/03/31 01:08:46;;;;;;;15.57;7.93;;;14.20;45.70;;;;;;2082137;28;20048;-82
2021/03/31 01:09:47;;;;;;;14.15;7.35;;;14.10;45.70;;;;;;2074439;28;20018;-82
2021/03/31 01:10:51;;;;;;;14.38;7.82;;;14.10;45.80;;;;;;2068533;28;20030;-82
2021/03/31 01:12:11;;;;;;;15.55;8.40;;;14.10;45.90;;;;;;2090276;28;20021;-82
2021/03/31 01:13:32;;;;;;;14.80;7.50;;;14.10;45.90;;;;;;2089421;28;20017;-82
2021/03/31 01:15:07;;;;;;;13.65;7.28;;;14.00;46.00;;;;;;2090296;28;20029;-83
2021/03/31 01:16:29;;;;;;;13.52;6.75;;;14.00;46.00;;;;;;2074430;28;20482;-82
2021/03/31 01:17:52;;;;;;;14.38;7.32;;;14.00;46.10;;;;;;2091956;28;20036;-82
2021/03/31 01:19:25;;;;;;;12.77;6.82;;;13.90;46.00;;;;;;2081864;28;20498;-82
2021/03/31 01:20:50;;;;;;;13.75;6.78;;;13.90;46.10;;;;;;2080365;28;20029;-82
2021/03/31 01:22:25;;;;;;;15.38;7.47;;;13.90;46.10;;;;;;2078358;28;20520;-82
2021/03/31 01:23:46;;;;;;;15.77;8.25;;;13.90;46.00;;;;;;2086078;28;20033;-82
2021/03/31 01:24:50;;;;;;;;;;;13.90;45.90;;;;;;2095937;28;20032;-82
2021/03/31 01:26:02;;;;;;;12.55;6.47;;;13.90;45.90;;;;;;2081643;28;20004;-82
2021/03/31 01:27:17;;;;;;;13.20;6.60;;;13.90;45.90;;;;;;2083750;28;20021;-82
2021/03/31 01:28:48;;;;;;;12.00;7.03;;;14.00;45.90;;;;;;2081190;28;20025;-82
2021/03/31 01:30:08;;;;;;;;;;;13.90;45.90;;;;;;2082390;28;20037;-82
2021/03/31 01:31:30;;;;;;;12.63;6.43;;;13.90;46.00;;;;;;2089063;28;20005;-82
2021/03/31 01:32:33;;;;;;;12.48;5.93;;;13.90;46.00;;;;;;2097510;28;20037;-82
2021/03/31 01:33:52;;;;;;;13.13;6.93;;;13.90;46.00;;;;;;2098975;28;20028;-83
2021/03/31 01:35:00;;;;;;;13.02;6.90;;;13.90;46.10;;;;;;2099102;28;20056;-82
2021/03/31 01:36:01;;;;;;;12.55;6.65;;;13.80;46.10;;;;;;2091342;28;20021;-82
2021/03/31 01:37:08;;;;;;;14.90;7.53;;;13.80;46.10;;;;;;2073746;28;20096;-82
2021/03/31 01:38:12;;;;;;;13.40;7.47;;;13.80;46.10;;;;;;2075257;28;20029;-82
2021/03/31 01:39:13;;;;;;;13.85;7.75;;;13.80;46.20;;;;;;2090500;28;20013;-82
2021/03/31 01:40:16;;;;;;;14.23;7.53;;;13.80;46.20;;;;;;2081800;28;20048;-81
2021/03/31 01:41:19;;;;;;;14.23;7.32;;;13.80;46.20;;;;;;2082208;28;20025;-82
2021/03/31 01:42:21;;;;;;;15.25;7.47;;;13.80;46.20;;;;;;2088745;28;20024;-82
2021/03/31 01:43:24;;;;;;;14.82;7.75;;;13.80;46.30;;;;;;2073437;28;20026;-82
2021/03/31 01:44:25;;;;;;;13.95;7.60;;;13.80;46.30;;;;;;2080474;28;20033;-82
2021/03/31 01:45:32;;;;;;;13.95;7.22;;;13.70;46.20;;;;;;2094059;28;20025;-82
2021/03/31 01:46:35;;;;;;;14.63;7.60;;;13.70;46.30;;;;;;2089877;28;20040;-81
2021/03/31 01:47:40;;;;;;;14.07;7.45;;;13.70;46.30;;;;;;2078180;28;20032;-82
2021/03/31 01:48:41;;;;;;;14.27;7.60;;;13.70;46.30;;;;;;2076273;28;20033;-82
2021/03/31 01:49:42;;;;;;;13.35;7.50;;;13.70;46.40;;;;;;2088502;28;20025;-82
2021/03/31 01:50:55;;;;;;;15.07;7.78;;;13.70;46.40;;;;;;2072757;28;20033;-82
2021/03/31 01:52:00;;;;;;;13.23;7.55;;;13.70;46.50;;;;;;2077259;28;20029;-82
2021/03/31 01:53:03;;;;;;;13.75;7.55;;;13.70;46.50;;;;;;2090808;28;20106;-82
2021/03/31 01:54:06;;;;;;;13.65;7.13;;;13.60;46.50;;;;;;2089636;28;20130;-82
2021/03/31 01:55:07;;;;;;;15.35;7.82;;;13.60;46.50;;;;;;2073088;28;20030;-82
2021/03/31 01:56:09;;;;;;;15.20;8.30;;;13.60;46.60;;;;;;2082240;28;20104;-82
2021/03/31 01:57:12;;;;;;;14.93;7.47;;;13.60;47.30;;;;;;2066383;28;20488;-82
2021/03/31 01:58:13;;;;;;;13.70;7.95;;;13.60;46.70;;;;;;2063284;28;20169;-82
2021/03/31 01:59:18;;;;;;;13.38;7.57;;;13.50;46.80;;;;;;2075507;28;20076;-82
2021/03/31 02:00:19;;;;;;;13.82;7.18;;;13.60;46.80;;;;;;2086429;28;20025;-82
2021/03/31 02:01:21;;;;;;;14.38;7.43;;;13.50;46.80;;;;;;2074756;28;20326;-82
2021/03/31 02:02:23;;;;;;;15.82;8.55;;;13.50;46.80;;;;;;2082250;28;20139;-82
2021/03/31 02:03:25;;;;;;;15.52;8.48;;;13.50;46.80;;;;;;2075695;28;20037;-82
2021/03/31 02:04:27;;;;;;;13.93;8.13;;;13.50;46.90;;;;;;2071107;28;20042;-82
2021/03/31 02:05:29;;;;;;;13.82;7.40;;;13.40;46.80;;;;;;2073638;28;20488;-82
2021/03/31 02:06:32;;;;;;;15.57;7.82;;;13.50;47.00;;;;;;2073760;28;20060;-82
2021/03/31 02:07:33;;;;;;;15.68;8.38;;;13.40;47.00;;;;;;2080113;28;20535;-82
2021/03/31 02:08:34;;;;;;;15.63;8.20;;;13.50;47.10;;;;;;2077474;28;20030;-82
2021/03/31 02:09:38;;;;;;;15.30;8.45;;;13.40;47.00;;;;;;2089761;28;20037;-82
2021/03/31 02:10:40;;;;;;;15.45;8.05;;;13.40;47.00;;;;;;2089577;28;20541;-82
2021/03/31 02:11:43;;;;;;;14.63;8.13;;;13.40;47.00;;;;;;2072910;28;20044;-82
2021/03/31 02:12:45;;;;;;;14.95;8.02;;;13.40;46.90;;;;;;2068068;28;20022;-82
2021/03/31 02:13:47;;;;;;;14.40;8.02;;;13.40;46.90;;;;;;2081875;28;20038;-82
2021/03/31 02:14:51;;;;;;;15.23;8.10;;;13.40;47.00;;;;;;2081519;28;20022;-82
2021/03/31 02:15:57;;;;;;;17.63;8.55;;;13.40;46.90;;;;;;2083152;28;20418;-82
2021/03/31 02:17:00;;;;;;;15.02;7.68;;;13.40;46.90;;;;;;2090573;28;20017;-82
2021/03/31 02:18:09;;;;;;;15.63;8.20;;;13.40;47.00;;;;;;2089789;28;20422;-82
2021/03/31 02:19:17;;;;;;;14.73;7.75;;;13.40;47.00;;;;;;2081922;28;20033;-83
2021/03/31 02:20:19;;;;;;;15.05;7.95;;;13.40;47.10;;;;;;2082721;28;20029;-82
2021/03/31 02:21:22;;;;;;;16.42;8.40;;;13.40;47.10;;;;;;2078780;28;20466;-82
2021/03/31 02:22:25;;;;;;;13.70;7.43;;;13.30;47.10;;;;;;2081184;28;20043;-82
2021/03/31 02:23:27;;;;;;;13.95;8.18;;;13.30;47.20;;;;;;2081634;28;20017;-82
2021/03/31 02:24:29;;;;;;;15.18;8.20;;;13.30;47.20;;;;;;2081127;28;20056;-82
2021/03/31 02:25:30;;;;;;;16.83;8.48;;;13.30;47.30;;;;;;2078588;28;20025;-81
2021/03/31 02:26:31;;;;;;;12.75;7.30;;;13.30;47.30;;;;;;2085407;28;20124;-82
2021/03/31 02:27:31;;;;;;;15.02;7.78;;;13.20;47.30;;;;;;2085956;28;20064;-82
2021/03/31 02:28:32;;;;;;;13.35;7.55;;;13.20;47.40;;;;;;2072774;28;20080;-82
2021/03/31 02:29:33;;;;;;;14.85;7.95;;;13.20;47.40;;;;;;2074802;28;20032;-82
2021/03/31 02:30:33;;;;;;;14.25;8.07;;;13.20;47.40;;;;;;2080925;28;20032;-82
2021/03/31 02:31:36;;;;;;;16.25;8.60;;;13.20;47.50;;;;;;2091069;28;20397;-82
2021/03/31 02:32:38;;;;;;;13.55;7.97;;;13.10;47.50;;;;;;2091386;28;20556;-82
2021/03/31 02:33:38;;;;;;;15.50;7.85;;;13.10;47.50;;;;;;2081387;28;20030;-82
2021/03/31 02:34:41;;;;;;;14.43;7.88;;;13.10;47.60;;;;;;2072931;28;20125;-82
2021/03/31 02:35:43;;;;;;;15.13;8.32;;;13.10;47.60;;;;;;2078014;28;20029;-82
2021/03/31 02:36:44;;;;;;;15.80;8.50;;;13.10;47.60;;;;;;2081938;28;20021;-82
2021/03/31 02:37:47;;;;;;;14.65;8.27;;;13.10;47.60;;;;;;2080040;28;20025;-82
2021/03/31 02:38:49;;;;;;;16.42;8.00;;;13.10;47.60;;;;;;2081397;28;20042;-81
2021/03/31 02:39:52;;;;;;;15.45;7.90;;;13.10;47.70;;;;;;2090948;28;20118;-82
2021/03/31 02:40:54;;;;;;;14.05;7.78;;;13.10;47.70;;;;;;2089411;28;20026;-82
2021/03/31 02:41:57;;;;;;;13.23;7.57;;;13.00;47.70;;;;;;2073319;28;20036;-82
2021/03/31 02:43:01;;;;;;;15.98;8.50;;;13.10;47.80;;;;;;2072753;28;20026;-82
2021/03/31 02:44:04;;;;;;;15.38;8.27;;;13.00;47.80;;;;;;2089690;28;20143;-81
2021/03/31 02:45:06;;;;;;;15.07;8.38;;;13.00;47.80;;;;;;2090131;28;20020;-82
2021/03/31 02:46:09;;;;;;;15.13;8.13;;;13.00;47.80;;;;;;2087303;28;20578;-82
2021/03/31 02:47:14;;;;;;;16.45;8.18;;;13.00;47.90;;;;;;2089213;28;20029;-82
2021/03/31 02:48:16;;;;;;;15.18;8.32;;;12.90;47.90;;;;;;2081154;28;20025;-82
2021/03/31 02:49:19;;;;;;;14.60;7.85;;;12.90;48.00;;;;;;2073612;28;20026;-81
2021/03/31 02:50:22;;;;;;;14.73;7.63;;;12.90;48.00;;;;;;2074346;28;20842;-81
2021/03/31 02:51:23;;;;;;;14.52;7.82;;;12.90;48.10;;;;;;2077579;28;20030;-82
2021/03/31 02:52:25;;;;;;;15.82;8.88;;;12.90;48.10;;;;;;2067569;28;20026;-82
2021/03/31 02:53:27;;;;;;;13.70;7.78;;;12.80;48.10;;;;;;2073808;28;20024;-82
2021/03/31 02:54:29;;;;;;;15.02;7.93;;;12.80;48.80;;;;;;2086593;28;20025;-82
2021/03/31 02:55:30;;;;;;;15.45;8.00;;;12.80;48.40;;;;;;2082086;28;20108;-81
2021/03/31 02:56:32;;;;;;;14.52;7.68;;;12.70;48.40;;;;;;2081411;28;20033;-82
2021/03/31 02:57:35;;;;;;;14.48;8.02;;;12.70;48.50;;;;;;2073084;28;20128;-82
2021/03/31 02:58:41;;;;;;;14.02;7.90;;;12.70;48.60;;;;;;2073507;28;20088;-82
2021/03/31 02:59:43;;;;;;;15.55;7.55;;;12.70;48.70;;;;;;2089420;28;20418;-82
2021/03/31 03:00:43;;;;;;;15.80;8.23;;;12.70;48.70;;;;;;2079643;28;20025;-82
2021/03/31 03:01:45;;;;;;;15.40;8.43;;;12.60;48.70;;;;;;2064747;28;20030;-82
2021/03/31 03:02:46;;;;;;;14.77;8.43;;;12.60;48.60;;;;;;2072885;28;20450;-82
2021/03/31 03:03:47;;;;;;;14.63;7.82;;;12.60;48.70;;;;;;2073892;28;20033;-81
2021/03/31 03:04:49;;;;;;;15.23;8.20;;;12.60;48.70;;;;;;2089364;28;20112;-82
2021/03/31 03:05:54;;;;;;;13.77;7.68;;;12.60;48.70;;;;;;2081269;28;20042;-82
2021/03/31 03:06:55;;;;;;;15.75;8.45;;;12.60;48.70;;;;;;2087908;28;20051;-82
2021/03/31 03:07:58;;;;;;;15.13;7.90;;;12.60;48.80;;;;;;2080378;28;20033;-82
2021/03/31 03:09:03;;;;;;;15.73;7.78;;;12.50;48.70;;;;;;2077063;28;20026;-82
2021/03/31 03:10:06;;;;;;;15.05;8.02;;;12.50;48.70;;;;;;2081478;28;20059;-83
2021/03/31 03:11:09;;;;;;;16.67;8.45;;;12.50;48.90;;;;;;2083109;28;20059;-82
2021/03/31 03:12:12;;;;;;;13.95;7.68;;;12.50;49.00;;;;;;2072919;28;20546;-82
2021/03/31 03:13:13;;;;;;;13.95;7.40;;;12.50;49.20;;;;;;2088626;28;20021;-82
2021/03/31 03:14:15;;;;;;;13.68;7.82;;;12.40;49.50;;;;;;2074465;28;20030;-82
2021/03/31 03:15:18;;;;;;;13.88;7.82;;;12.40;49.40;;;;;;2080815;28;20041;-81
2021/03/31 03:16:20;;;;;;;14.20;7.65;;;12.40;49.50;;;;;;2081467;28;20157;-82
2021/03/31 03:17:21;;;;;;;14.27;8.10;;;12.40;49.60;;;;;;2084854;28;20025;-81
2021/03/31 03:18:22;;;;;;;14.45;8.05;;;12.30;49.60;;;;;;2078019;28;20033;-82
2021/03/31 03:19:22;;;;;;;14.55;7.93;;;12.30;49.70;;;;;;2078381;28;20249;-82
2021/03/31 03:20:27;;;;;;;14.95;8.15;;;12.30;49.90;;;;;;2075708;28;20029;-82
2021/03/31 03:21:29;;;;;;;14.15;8.05;;;12.30;50.00;;;;;;2080029;28;20021;-82
2021/03/31 03:22:30;;;;;;;14.32;7.88;;;12.20;50.10;;;;;;2083065;28;20063;-81
2021/03/31 03:23:31;;;;;;;14.55;8.07;;;12.10;50.20;;;;;;2078010;28;20036;-82
2021/03/31 03:24:35;;;;;;;14.45;8.25;;;12.10;50.30;;;;;;2070218;28;20439;-81
2021/03/31 03:25:36;;;;;;;14.15;8.02;;;12.10;50.50;;;;;;2079046;28;20022;-81
2021/03/31 03:26:38;;;;;;;15.05;8.27;;;12.10;50.60;;;;;;2087984;28;20021;-82
2021/03/31 03:27:41;;;;;;;15.15;8.38;;;12.00;50.70;;;;;;2088565;28;20029;-82
2021/03/31 03:28:45;;;;;;;15.07;8.25;;;11.90;50.70;;;;;;2087670;28;20028;-82
2021/03/31 03:29:47;;;;;;;15.25;8.35;;;11.90;50.80;;;;;;2083395;28;20411;-82
2021/03/31 03:30:48;;;;;;;13.10;7.47;;;11.90;51.00;;;;;;2092272;28;20096;-81
2021/03/31 03:31:49;;;;;;;17.02;8.60;;;11.90;51.10;;;;;;2080275;28;20079;-81
2021/03/31 03:32:51;;;;;;;14.65;7.93;;;11.80;51.20;;;;;;2085281;28;20076;-81
2021/03/31 03:33:52;;;;;;;14.35;8.05;;;11.80;51.30;;;;;;2096001;28;20024;-82
2021/03/31 03:34:54;;;;;;;13.30;7.85;;;11.80;51.50;;;;;;2090630;28;20018;-82
2021/03/31 03:35:55;;;;;;;14.80;7.85;;;11.70;51.50;;;;;;2087508;28;20021;-82
2021/03/31 03:36:56;;;;;;;14.40;8.27;;;11.70;51.70;;;;;;2087324;28;20018;-82
2021/03/31 03:37:57;;;;;;;15.27;8.13;;;11.70;51.70;;;;;;2083816;28;19998;-81
2021/03/31 03:38:58;;;;;;;14.65;8.18;;;11.70;51.80;;;;;;2089117;28;20463;-82
2021/03/31 03:40:02;;;;;;;15.73;8.38;;;11.70;52.40;;;;;;2090101;28;20025;-82
2021/03/31 03:41:08;;;;;;;13.15;7.82;;;11.70;51.90;;;;;;2081659;28;20022;-82
2021/03/31 03:42:09;;;;;;;13.55;7.65;;;11.70;52.00;;;;;;2074022;28;20030;-81
2021/03/31 03:43:10;;;;;;;14.07;7.85;;;11.70;51.90;;;;;;2067228;28;20457;-82
2021/03/31 03:44:11;;;;;;;14.00;7.95;;;11.70;51.90;;;;;;2065384;28;20545;-81
2021/03/31 03:45:12;;;;;;;13.75;7.53;;;11.60;52.40;;;;;;2088433;28;20040;-81
2021/03/31 03:46:14;;;;;;;15.95;8.40;;;11.60;51.70;;;;;;2094003;28;20039;-80
2021/03/31 03:47:17;;;;;;;18.48;8.77;;;11.60;51.70;;;;;;2090555;28;20029;-83
2021/03/31 03:48:19;;;;;;;14.98;8.38;;;11.60;51.70;;;;;;2089157;28;20025;-82
2021/03/31 03:49:20;;;;;;;16.67;8.88;;;11.60;51.70;;;;;;2078203;28;20966;-82
2021/03/31 03:50:21;;;;;;;16.77;8.30;;;11.70;52.30;;;;;;2088778;28;20021;-82
2021/03/31 03:51:22;;;;;;;17.30;8.60;;;11.60;51.60;;;;;;2089973;28;20391;-82
2021/03/31 03:52:23;;;;;;;16.50;8.35;;;11.60;51.60;;;;;;2073270;28;20041;-82
2021/03/31 03:53:28;;;;;;;15.90;8.75;;;11.70;51.60;;;;;;2076994;28;20100;-82
2021/03/31 03:54:28;;;;;;;13.63;8.07;;;11.60;51.60;;;;;;2082583;28;20033;-81
2021/03/31 03:55:34;;;;;;;14.50;7.93;;;11.60;51.60;;;;;;2080633;28;20030;-82
2021/03/31 03:56:34;;;;;;;15.07;8.68;;;11.60;51.60;;;;;;2066026;28;20189;-82
2021/03/31 03:57:35;;;;;;;17.40;9.00;;;11.60;51.60;;;;;;2082339;28;20522;-82
2021/03/31 03:58:36;;;;;;;14.88;8.27;;;11.60;51.70;;;;;;2072312;28;20037;-82
2021/03/31 03:59:36;;;;;;;15.80;8.35;;;11.60;51.80;;;;;;2068334;28;20021;-82
2021/03/31 04:00:37;;;;;;;14.25;8.10;;;11.60;52.00;;;;;;2080716;28;20420;-83
2021/03/31 04:01:38;;;;;;;15.52;8.32;;;11.60;52.00;;;;;;2081207;28;20463;-83
2021/03/31 04:02:39;;;;;;;13.90;8.05;;;11.50;52.00;;;;;;2080538;28;20044;-83
2021/03/31 04:03:40;;;;;;;13.75;8.38;;;11.60;52.00;;;;;;2070863;28;20030;-82
2021/03/31 04:04:41;;;;;;;15.60;8.73;;;11.60;52.00;;;;;;2083461;28;20021;-82
2021/03/31 04:05:41;;;;;;;14.90;8.02;;;11.50;52.00;;;;;;2085641;28;20041;-83
2021/03/31 04:06:42;;;;;;;16.08;8.27;;;11.50;52.00;;;;;;2087180;28;20551;-81
2021/03/31 04:07:42;;;;;;;14.68;8.35;;;11.50;52.00;;;;;;2090243;28;20013;-82
2021/03/31 04:08:43;;;;;;;17.73;9.35;;;11.50;52.00;;;;;;2088655;28;20049;-83
2021/03/31 04:09:46;;;;;;;16.23;8.60;;;11.50;52.00;;;;;;2089431;28;20029;-82
2021/03/31 04:10:52;;;;;;;16.48;9.13;;;11.50;52.20;;;;;;2088999;28;20080;-83
2021/03/31 04:11:53;;;;;;;14.82;7.95;;;11.50;52.30;;;;;;2089759;28;20459;-82
2021/03/31 04:12:56;;;;;;;13.85;8.32;;;11.50;52.40;;;;;;2073606;28;20028;-82
2021/03/31 04:14:01;;;;;;;13.35;8.00;;;11.50;52.50;;;;;;2065516;28;20026;-82
2021/03/31 04:15:04;;;;;;;14.88;8.10;;;11.50;52.50;;;;;;2079167;28;20061;-81
2021/03/31 04:16:14;;;;;;;14.60;8.32;;;11.50;52.60;;;;;;2076467;28;20021;-81
2021/03/31 04:17:17;;;;;;;14.90;8.63;;;11.50;52.70;;;;;;2083075;28;20024;-81
2021/03/31 04:18:19;;;;;;;14.25;8.20;;;11.50;52.70;;;;;;2069606;28;20477;-82
2021/03/31 04:19:21;;;;;;;14.20;7.85;;;11.40;52.70;;;;;;2073086;28;20621;-82
2021/03/31 04:20:23;;;;;;;13.80;7.93;;;11.40;53.40;;;;;;2086677;28;20522;-80
2021/03/31 04:21:24;;;;;;;13.10;8.23;;;11.40;52.90;;;;;;2085737;28;20022;-82
2021/03/31 04:22:25;;;;;;;14.95;8.15;;;11.40;53.00;;;;;;2065569;28;20030;-82
2021/03/31 04:23:27;;;;;;;14.57;8.10;;;11.40;53.10;;;;;;2064490;28;20031;-82
2021/03/31 04:24:28;;;;;;;13.70;7.97;;;11.40;53.20;;;;;;2072461;28;20030;-82
2021/03/31 04:25:28;;;;;;;14.70;8.07;;;11.40;53.20;;;;;;2071742;28;20037;-82
2021/03/31 04:26:31;;;;;;;14.95;8.48;;;11.30;53.20;;;;;;2072611;28;20527;-82
2021/03/31 04:27:34;;;;;;;14.95;8.00;;;11.30;53.30;;;;;;2079472;28;20028;-82
2021/03/31 04:28:36;;;;;;;15.95;8.88;;;11.30;53.40;;;;;;2078186;28;20033;-82
2021/03/31 04:29:45;;;;;;;14.73;7.97;;;11.30;53.40;;;;;;2071750;28;20559;-82
2021/03/31 04:30:46;;;;;;;14.27;8.30;;;11.30;54.00;;;;;;2067001;28;20041;-82
2021/03/31 04:31:46;;;;;;;15.98;8.57;;;11.30;53.40;;;;;;2079951;28;20053;-81
2021/03/31 04:32:50;;;;;;;14.27;7.90;;;11.30;53.40;;;;;;2079407;28;20455;-82
2021/03/31 04:33:51;;;;;;;15.98;8.27;;;11.30;53.50;;;;;;2085275;28;20072;-82
2021/03/31 04:34:52;;;;;;;14.40;8.27;;;11.30;53.50;;;;;;2072656;28;20480;-82
2021/03/31 04:35:54;;;;;;;14.05;8.13;;;11.20;53.50;;;;;;2076224;28;20079;-82
2021/03/31 04:36:55;;;;;;;15.40;7.80;;;11.30;53.60;;;;;;2083594;28;20053;-82
2021/03/31 04:38:09;;;;;;;15.75;8.45;;;11.20;53.60;;;;;;2078029;28;20435;-82
2021/03/31 04:39:10;;;;;;;13.75;8.07;;;11.20;53.60;;;;;;2079573;28;20431;-82
2021/03/31 04:40:15;;;;;;;14.82;8.27;;;11.20;53.70;;;;;;2072643;28;20026;-82
2021/03/31 04:41:17;;;;;;;15.55;8.15;;;11.20;53.70;;;;;;2085416;28;20021;-82
2021/03/31 04:42:17;;;;;;;15.63;8.02;;;11.10;53.60;;;;;;2064382;28;20533;-82
2021/03/31 04:43:19;;;;;;;15.38;8.85;;;11.20;53.70;;;;;;2064402;28;20042;-82
2021/03/31 04:44:20;;;;;;;17.05;8.55;;;11.10;53.70;;;;;;2072500;28;20030;-82
2021/03/31 04:45:21;;;;;;;15.57;8.43;;;11.20;53.80;;;;;;2066135;28;20046;-82
2021/03/31 04:46:21;;;;;;;14.18;7.85;;;11.10;53.70;;;;;;2072432;28;20045;-82
2021/03/31 04:47:22;;;;;;;13.85;8.25;;;11.20;53.80;;;;;;2076911;28;20107;-82
2021/03/31 04:48:23;;;;;;;15.27;8.02;;;11.10;53.90;;;;;;2087918;28;20364;-82
2021/03/31 04:49:24;;;;;;;15.07;8.40;;;11.20;54.10;;;;;;2083795;28;20030;-82
2021/03/31 04:50:24;;;;;;;14.98;7.82;;;11.10;54.00;;;;;;2080308;28;20071;-82
2021/03/31 04:51:25;;;;;;;14.23;8.02;;;11.10;54.10;;;;;;2079580;28;20063;-82
2021/03/31 04:52:28;;;;;;;14.45;8.40;;;11.10;54.10;;;;;;2072661;28;20026;-82
2021/03/31 04:53:29;;;;;;;14.02;8.07;;;11.10;54.20;;;;;;2081043;28;20025;-83
2021/03/31 04:54:30;;;;;;;14.25;8.10;;;11.10;54.40;;;;;;2079746;28;20069;-82
2021/03/31 04:55:30;;;;;;;14.05;8.02;;;11.10;54.40;;;;;;2079848;28;20056;-82
2021/03/31 04:56:31;;;;;;;17.75;8.55;;;11.10;54.50;;;;;;2077783;28;20052;-82
2021/03/31 04:57:32;;;;;;;15.70;8.85;;;11.10;54.50;;;;;;2080599;28;20021;-82
2021/03/31 04:58:33;;;;;;;15.07;8.90;;;11.00;54.60;;;;;;2087898;28;20538;-81
2021/03/31 04:59:33;;;;;;;15.48;9.30;;;11.00;54.70;;;;;;2080545;28;20025;-81
2021/03/31 05:00:34;;;;;;;14.63;8.52;;;11.00;54.80;;;;;;2073395;28;20416;-82
2021/03/31 05:01:34;;;;;;;15.90;9.27;;;11.00;54.90;;;;;;2080546;28;20034;-82
2021/03/31 05:02:35;;;;;;;14.30;8.52;;;11.00;55.00;;;;;;2072656;28;20080;-82
2021/03/31 05:03:36;;;;;;;15.15;9.02;;;11.00;55.10;;;;;;2074273;28;20036;-82
2021/03/31 05:04:36;;;;;;;16.55;9.07;;;11.00;55.10;;;;;;2079776;28;20033;-82
2021/03/31 05:05:37;;;;;;;16.05;9.25;;;10.90;55.20;;;;;;2072243;28;20022;-82
2021/03/31 05:06:38;;;;;;;14.02;8.40;;;10.90;55.80;;;;;;2072471;28;20029;-82
2021/03/31 05:07:39;;;;;;;16.33;8.82;;;10.90;55.20;;;;;;2088772;28;20032;-82
2021/03/31 05:08:39;;;;;;;14.50;8.75;;;10.90;55.20;;;;;;2097859;28;20043;-82
2021/03/31 05:09:40;;;;;;;14.98;8.90;;;10.90;55.20;;;;;;2084624;28;20029;-82
2021/03/31 05:10:40;;;;;;;14.75;8.73;;;10.80;55.30;;;;;;2083691;28;20505;-82
2021/03/31 05:11:41;;;;;;;13.93;8.13;;;10.90;55.40;;;;;;2081428;28;20037;-82
2021/03/31 05:12:42;;;;;;;13.65;8.98;;;10.80;55.40;;;;;;2072544;28;20026;-82
2021/03/31 05:13:42;;;;;;;14.77;8.50;;;10.80;55.50;;;;;;2080468;28;20395;-82
2021/03/31 05:14:43;;;;;;;16.65;8.85;;;10.80;55.60;;;;;;2090441;28;20071;-82
2021/03/31 05:15:43;;;;;;;16.95;8.80;;;10.80;55.80;;;;;;2085037;28;20083;-82
2021/03/31 05:16:44;;;;;;;15.23;8.38;;;10.70;55.80;;;;;;2064319;28;20395;-82
2021/03/31 05:17:45;;;;;;;14.20;8.50;;;10.70;55.90;;;;;;2077597;28;20026;-82
2021/03/31 05:18:45;;;;;;;14.80;8.50;;;10.60;56.50;;;;;;2079298;28;20037;-82
2021/03/31 05:19:46;;;;;;;15.60;8.88;;;10.60;56.00;;;;;;2080320;28;20399;-82
2021/03/31 05:20:47;;;;;;;14.60;8.88;;;10.60;56.10;;;;;;2076110;28;20076;-82
2021/03/31 05:21:47;;;;;;;14.90;8.60;;;10.60;56.20;;;;;;2072433;28;20026;-82
2021/03/31 05:22:48;;;;;;;13.77;8.18;;;10.60;56.20;;;;;;2075398;28;20022;-82
2021/03/31 05:23:49;;;;;;;15.70;8.80;;;10.60;56.20;;;;;;2080559;28;20025;-81